sensor_id;sensor_type;location;lat;lon;timestamp;P1;durP1;ratioP1;P2;durP2;ratioP2
75465;SDS011;64049;46.290;44.240;2022-10-23T00:00:09;12.98;;;6.63;;
75465;SDS011;64049;46.290;44.240;2022-10-23T00:02:35;12.18;;;6.00;;
75465;SDS011;64049;46.290;44.240;2022-10-23T00:05:01;12.18;;;6.13;;
75465;SDS011;64049;46.290;44.240;2022-10-23T00:07:27;12.95;;;6.10;;
75465;SDS011;64049;46.290;44.240;2022-10-23T00:09:53;13.18;;;5.78;;
75465;SDS011;64049;46.290;44.240;2022-10-23T00:12:19;14.50;;;6.53;;
75465;SDS011;64049;46.290;44.240;2022-10-23T00:14:45;13.13;;;6.82;;
75465;SDS011;64049;46.290;44.240;2022-10-23T00:17:11;10.88;;;5.53;;
75465;SDS011;64049;46.290;44.240;2022-10-23T00:19:37;13.65;;;6.43;;
75465;SDS011;64049;46.290;44.240;2022-10-23T00:22:03;10.85;;;6.07;;
75465;SDS011;64049;46.290;44.240;2022-10-23T00:24:29;15.10;;;5.80;;
75465;SDS011;64049;46.290;44.240;2022-10-23T00:26:55;10.73;;;5.25;;
75465;SDS011;64049;46.290;44.240;2022-10-23T00:29:21;12.30;;;6.03;;
75465;SDS011;64049;46.290;44.240;2022-10-23T00:31:47;13.73;;;6.20;;
75465;SDS011;64049;46.290;44.240;2022-10-23T00:34:15;13.25;;;6.05;;
75465;SDS011;64049;46.290;44.240;2022-10-23T00:36:41;15.65;;;6.45;;
75465;SDS011;64049;46.290;44.240;2022-10-23T00:39:07;15.48;;;5.97;;
75465;SDS011;64049;46.290;44.240;2022-10-23T00:41:33;12.73;;;6.57;;
75465;SDS011;64049;46.290;44.240;2022-10-23T00:44:07;11.63;;;5.97;;
75465;SDS011;64049;46.290;44.240;2022-10-23T00:46:43;12.30;;;6.45;;
75465;SDS011;64049;46.290;44.240;2022-10-23T00:49:10;10.48;;;5.88;;
75465;SDS011;64049;46.290;44.240;2022-10-23T00:51:50;13.80;;;7.00;;
75465;SDS011;64049;46.290;44.240;2022-10-23T00:54:26;11.60;;;6.10;;
75465;SDS011;64049;46.290;44.240;2022-10-23T00:56:59;13.30;;;6.95;;
75465;SDS011;64049;46.290;44.240;2022-10-23T00:59:28;12.70;;;6.38;;
75465;SDS011;64049;46.290;44.240;2022-10-23T01:01:54;12.65;;;6.43;;
75465;SDS011;64049;46.290;44.240;2022-10-23T01:04:21;13.45;;;6.40;;
75465;SDS011;64049;46.290;44.240;2022-10-23T01:06:50;14.45;;;6.38;;
75465;SDS011;64049;46.290;44.240;2022-10-23T01:11:58;11.32;;;6.45;;
75465;SDS011;64049;46.290;44.240;2022-10-23T01:31:24;12.77;;;5.93;;
75465;SDS011;64049;46.290;44.240;2022-10-23T01:34:04;10.48;;;5.55;;
75465;SDS011;64049;46.290;44.240;2022-10-23T01:36:40;9.77;;;5.30;;
75465;SDS011;64049;46.290;44.240;2022-10-23T01:39:13;13.13;;;5.88;;
75465;SDS011;64049;46.290;44.240;2022-10-23T01:41:46;11.88;;;6.25;;
75465;SDS011;64049;46.290;44.240;2022-10-23T01:44:25;11.60;;;5.95;;
75465;SDS011;64049;46.290;44.240;2022-10-23T01:46:57;10.52;;;5.97;;
75465;SDS011;64049;46.290;44.240;2022-10-23T01:49:26;14.07;;;5.90;;
75465;SDS011;64049;46.290;44.240;2022-10-23T01:51:56;11.68;;;6.03;;
75465;SDS011;64049;46.290;44.240;2022-10-23T01:54:28;11.90;;;5.63;;
75465;SDS011;64049;46.290;44.240;2022-10-23T01:56:57;12.10;;;6.13;;
75465;SDS011;64049;46.290;44.240;2022-10-23T01:59:32;14.57;;;6.90;;
75465;SDS011;64049;46.290;44.240;2022-10-23T02:02:02;11.80;;;6.15;;
75465;SDS011;64049;46.290;44.240;2022-10-23T02:04:33;11.30;;;6.28;;
75465;SDS011;64049;46.290;44.240;2022-10-23T02:07:04;17.05;;;7.22;;
75465;SDS011;64049;46.290;44.240;2022-10-23T02:09:30;11.75;;;6.35;;
75465;SDS011;64049;46.290;44.240;2022-10-23T02:15:04;15.68;;;6.70;;
75465;SDS011;64049;46.290;44.240;2022-10-23T02:25:45;10.80;;;5.43;;
75465;SDS011;64049;46.290;44.240;2022-10-23T02:28:26;12.05;;;6.32;;
75465;SDS011;64049;46.290;44.240;2022-10-23T02:31:00;13.27;;;6.30;;
75465;SDS011;64049;46.290;44.240;2022-10-23T02:33:29;22.45;;;7.07;;
75465;SDS011;64049;46.290;44.240;2022-10-23T02:35:57;12.60;;;5.82;;
75465;SDS011;64049;46.290;44.240;2022-10-23T02:38:30;12.30;;;6.18;;
75465;SDS011;64049;46.290;44.240;2022-10-23T02:41:10;12.95;;;6.30;;
75465;SDS011;64049;46.290;44.240;2022-10-23T02:43:52;12.85;;;6.00;;
75465;SDS011;64049;46.290;44.240;2022-10-23T02:46:44;14.00;;;6.45;;
75465;SDS011;64049;46.290;44.240;2022-10-23T02:49:22;10.95;;;6.30;;
75465;SDS011;64049;46.290;44.240;2022-10-23T02:51:55;13.38;;;6.30;;
75465;SDS011;64049;46.290;44.240;2022-10-23T02:54:53;12.35;;;6.22;;
75465;SDS011;64049;46.290;44.240;2022-10-23T02:57:49;14.48;;;6.70;;
75465;SDS011;64049;46.290;44.240;2022-10-23T03:00:20;12.38;;;6.30;;
75465;SDS011;64049;46.290;44.240;2022-10-23T03:07:47;12.68;;;5.82;;
75465;SDS011;64049;46.290;44.240;2022-10-23T03:10:16;13.40;;;6.03;;
75465;SDS011;64049;46.290;44.240;2022-10-23T03:12:42;12.45;;;6.18;;
75465;SDS011;64049;46.290;44.240;2022-10-23T03:15:09;15.40;;;6.78;;
75465;SDS011;64049;46.290;44.240;2022-10-23T03:17:36;11.35;;;5.97;;
75465;SDS011;64049;46.290;44.240;2022-10-23T03:20:03;15.05;;;6.35;;
75465;SDS011;64049;46.290;44.240;2022-10-23T03:22:30;14.85;;;6.30;;
75465;SDS011;64049;46.290;44.240;2022-10-23T03:24:56;12.43;;;6.65;;
75465;SDS011;64049;46.290;44.240;2022-10-23T03:27:22;14.38;;;7.53;;
75465;SDS011;64049;46.290;44.240;2022-10-23T03:29:48;15.07;;;6.72;;
75465;SDS011;64049;46.290;44.240;2022-10-23T03:32:16;21.67;;;9.05;;
75465;SDS011;64049;46.290;44.240;2022-10-23T03:34:43;13.00;;;6.88;;
75465;SDS011;64049;46.290;44.240;2022-10-23T03:37:09;16.52;;;7.72;;
75465;SDS011;64049;46.290;44.240;2022-10-23T03:39:35;14.20;;;7.10;;
75465;SDS011;64049;46.290;44.240;2022-10-23T03:42:01;16.95;;;7.57;;
75465;SDS011;64049;46.290;44.240;2022-10-23T03:44:27;22.90;;;7.47;;
75465;SDS011;64049;46.290;44.240;2022-10-23T03:46:56;13.05;;;6.50;;
75465;SDS011;64049;46.290;44.240;2022-10-23T03:49:22;15.27;;;6.80;;
75465;SDS011;64049;46.290;44.240;2022-10-23T03:51:48;20.25;;;7.72;;
75465;SDS011;64049;46.290;44.240;2022-10-23T03:54:26;17.00;;;7.85;;
75465;SDS011;64049;46.290;44.240;2022-10-23T03:56:54;13.82;;;6.45;;
75465;SDS011;64049;46.290;44.240;2022-10-23T03:59:20;12.10;;;6.28;;
75465;SDS011;64049;46.290;44.240;2022-10-23T04:01:47;13.98;;;6.93;;
75465;SDS011;64049;46.290;44.240;2022-10-23T04:04:13;14.02;;;6.78;;
75465;SDS011;64049;46.290;44.240;2022-10-23T04:06:41;13.85;;;6.57;;
75465;SDS011;64049;46.290;44.240;2022-10-23T04:09:07;13.90;;;7.28;;
75465;SDS011;64049;46.290;44.240;2022-10-23T04:11:34;13.23;;;6.07;;
75465;SDS011;64049;46.290;44.240;2022-10-23T04:13:59;13.98;;;8.13;;
75465;SDS011;64049;46.290;44.240;2022-10-23T04:16:25;13.13;;;6.28;;
75465;SDS011;64049;46.290;44.240;2022-10-23T04:18:51;14.88;;;7.20;;
75465;SDS011;64049;46.290;44.240;2022-10-23T04:21:18;14.32;;;6.22;;
75465;SDS011;64049;46.290;44.240;2022-10-23T04:23:44;15.23;;;7.50;;
75465;SDS011;64049;46.290;44.240;2022-10-23T04:28:38;13.10;;;7.30;;
75465;SDS011;64049;46.290;44.240;2022-10-23T04:31:04;16.33;;;7.68;;
75465;SDS011;64049;46.290;44.240;2022-10-23T04:33:31;13.05;;;7.43;;
75465;SDS011;64049;46.290;44.240;2022-10-23T04:35:58;16.73;;;7.82;;
75465;SDS011;64049;46.290;44.240;2022-10-23T04:38:24;14.68;;;7.00;;
75465;SDS011;64049;46.290;44.240;2022-10-23T04:40:50;16.25;;;7.70;;
75465;SDS011;64049;46.290;44.240;2022-10-23T04:43:20;16.60;;;7.32;;
75465;SDS011;64049;46.290;44.240;2022-10-23T04:45:47;16.52;;;7.53;;
75465;SDS011;64049;46.290;44.240;2022-10-23T04:48:13;15.50;;;7.03;;
75465;SDS011;64049;46.290;44.240;2022-10-23T04:51:17;15.70;;;8.18;;
75465;SDS011;64049;46.290;44.240;2022-10-23T04:53:58;15.93;;;7.75;;
75465;SDS011;64049;46.290;44.240;2022-10-23T04:56:36;13.57;;;6.88;;
75465;SDS011;64049;46.290;44.240;2022-10-23T04:59:06;16.15;;;8.10;;
75465;SDS011;64049;46.290;44.240;2022-10-23T05:01:33;15.90;;;6.97;;
75465;SDS011;64049;46.290;44.240;2022-10-23T05:04:02;13.27;;;6.75;;
75465;SDS011;64049;46.290;44.240;2022-10-23T05:06:30;16.33;;;7.57;;
75465;SDS011;64049;46.290;44.240;2022-10-23T05:09:19;17.15;;;7.32;;
75465;SDS011;64049;46.290;44.240;2022-10-23T05:11:57;15.23;;;7.43;;
75465;SDS011;64049;46.290;44.240;2022-10-23T05:14:23;17.35;;;8.23;;
75465;SDS011;64049;46.290;44.240;2022-10-23T05:17:11;16.45;;;7.95;;
75465;SDS011;64049;46.290;44.240;2022-10-23T05:19:42;22.33;;;10.45;;
75465;SDS011;64049;46.290;44.240;2022-10-23T05:22:12;29.90;;;11.57;;
75465;SDS011;64049;46.290;44.240;2022-10-23T05:24:49;28.30;;;11.57;;
75465;SDS011;64049;46.290;44.240;2022-10-23T05:27:18;21.40;;;9.98;;
75465;SDS011;64049;46.290;44.240;2022-10-23T05:29:44;15.82;;;7.13;;
75465;SDS011;64049;46.290;44.240;2022-10-23T05:32:11;15.30;;;7.50;;
75465;SDS011;64049;46.290;44.240;2022-10-23T05:34:39;13.63;;;6.88;;
75465;SDS011;64049;46.290;44.240;2022-10-23T05:39:37;15.60;;;7.43;;
75465;SDS011;64049;46.290;44.240;2022-10-23T05:42:07;15.52;;;6.63;;
75465;SDS011;64049;46.290;44.240;2022-10-23T05:44:33;12.88;;;7.53;;
75465;SDS011;64049;46.290;44.240;2022-10-23T05:47:22;13.73;;;6.60;;
75465;SDS011;64049;46.290;44.240;2022-10-23T05:50:04;13.45;;;6.35;;
75465;SDS011;64049;46.290;44.240;2022-10-23T05:52:48;11.82;;;6.88;;
75465;SDS011;64049;46.290;44.240;2022-10-23T05:55:34;14.95;;;6.63;;
75465;SDS011;64049;46.290;44.240;2022-10-23T05:58:34;14.27;;;6.32;;
75465;SDS011;64049;46.290;44.240;2022-10-23T06:01:18;15.82;;;6.30;;
75465;SDS011;64049;46.290;44.240;2022-10-23T06:04:03;12.68;;;6.55;;
75465;SDS011;64049;46.290;44.240;2022-10-23T06:06:50;12.18;;;6.32;;
75465;SDS011;64049;46.290;44.240;2022-10-23T06:09:16;12.00;;;6.20;;
75465;SDS011;64049;46.290;44.240;2022-10-23T06:11:44;12.35;;;5.78;;
75465;SDS011;64049;46.290;44.240;2022-10-23T06:14:16;14.35;;;5.63;;
75465;SDS011;64049;46.290;44.240;2022-10-23T06:16:42;15.18;;;5.88;;
75465;SDS011;64049;46.290;44.240;2022-10-23T06:19:09;11.68;;;5.57;;
75465;SDS011;64049;46.290;44.240;2022-10-23T06:21:37;11.73;;;6.15;;
75465;SDS011;64049;46.290;44.240;2022-10-23T06:24:05;9.15;;;5.00;;
75465;SDS011;64049;46.290;44.240;2022-10-23T06:27:00;12.75;;;5.50;;
75465;SDS011;64049;46.290;44.240;2022-10-23T06:29:56;12.65;;;6.43;;
75465;SDS011;64049;46.290;44.240;2022-10-23T06:32:22;11.18;;;6.15;;
75465;SDS011;64049;46.290;44.240;2022-10-23T06:35:02;9.23;;;4.78;;
75465;SDS011;64049;46.290;44.240;2022-10-23T06:37:28;9.77;;;4.57;;
75465;SDS011;64049;46.290;44.240;2022-10-23T06:40:07;10.45;;;4.55;;
75465;SDS011;64049;46.290;44.240;2022-10-23T06:43:12;8.98;;;4.82;;
75465;SDS011;64049;46.290;44.240;2022-10-23T06:45:53;9.55;;;4.78;;
75465;SDS011;64049;46.290;44.240;2022-10-23T06:48:37;13.85;;;5.35;;
75465;SDS011;64049;46.290;44.240;2022-10-23T06:51:13;11.48;;;4.95;;
75465;SDS011;64049;46.290;44.240;2022-10-23T06:53:43;7.22;;;3.58;;
75465;SDS011;64049;46.290;44.240;2022-10-23T06:56:47;10.52;;;3.92;;
75465;SDS011;64049;46.290;44.240;2022-10-23T06:59:17;12.45;;;3.92;;
75465;SDS011;64049;46.290;44.240;2022-10-23T07:01:45;9.52;;;3.67;;
75465;SDS011;64049;46.290;44.240;2022-10-23T07:04:11;6.25;;;3.42;;
75465;SDS011;64049;46.290;44.240;2022-10-23T07:06:41;8.57;;;3.38;;
75465;SDS011;64049;46.290;44.240;2022-10-23T07:09:08;10.05;;;5.43;;
75465;SDS011;64049;46.290;44.240;2022-10-23T07:11:50;10.93;;;4.80;;
75465;SDS011;64049;46.290;44.240;2022-10-23T07:14:17;12.02;;;6.95;;
75465;SDS011;64049;46.290;44.240;2022-10-23T07:16:43;11.00;;;5.22;;
75465;SDS011;64049;46.290;44.240;2022-10-23T07:19:09;8.80;;;4.78;;
75465;SDS011;64049;46.290;44.240;2022-10-23T07:21:47;10.35;;;4.05;;
75465;SDS011;64049;46.290;44.240;2022-10-23T07:24:35;7.88;;;4.28;;
75465;SDS011;64049;46.290;44.240;2022-10-23T07:27:12;7.85;;;4.20;;
75465;SDS011;64049;46.290;44.240;2022-10-23T07:29:38;6.93;;;3.33;;
75465;SDS011;64049;46.290;44.240;2022-10-23T07:32:05;6.78;;;3.55;;
75465;SDS011;64049;46.290;44.240;2022-10-23T07:34:49;7.80;;;3.78;;
75465;SDS011;64049;46.290;44.240;2022-10-23T07:39:49;8.07;;;3.20;;
75465;SDS011;64049;46.290;44.240;2022-10-23T07:42:15;7.68;;;3.78;;
75465;SDS011;64049;46.290;44.240;2022-10-23T07:44:41;7.35;;;3.50;;
75465;SDS011;64049;46.290;44.240;2022-10-23T07:47:08;8.48;;;3.10;;
75465;SDS011;64049;46.290;44.240;2022-10-23T07:49:34;7.90;;;3.42;;
75465;SDS011;64049;46.290;44.240;2022-10-23T07:52:00;8.40;;;4.07;;
75465;SDS011;64049;46.290;44.240;2022-10-23T07:54:36;7.75;;;3.72;;
75465;SDS011;64049;46.290;44.240;2022-10-23T07:57:17;7.13;;;3.38;;
75465;SDS011;64049;46.290;44.240;2022-10-23T07:59:47;7.53;;;3.33;;
75465;SDS011;64049;46.290;44.240;2022-10-23T08:02:17;10.15;;;3.10;;
75465;SDS011;64049;46.290;44.240;2022-10-23T08:04:49;7.47;;;3.70;;
75465;SDS011;64049;46.290;44.240;2022-10-23T08:07:41;7.40;;;3.63;;
75465;SDS011;64049;46.290;44.240;2022-10-23T08:10:07;10.07;;;3.80;;
75465;SDS011;64049;46.290;44.240;2022-10-23T08:12:36;8.23;;;4.05;;
75465;SDS011;64049;46.290;44.240;2022-10-23T08:15:03;6.55;;;2.88;;
75465;SDS011;64049;46.290;44.240;2022-10-23T08:17:39;5.82;;;2.88;;
75465;SDS011;64049;46.290;44.240;2022-10-23T08:20:14;6.38;;;3.63;;
75465;SDS011;64049;46.290;44.240;2022-10-23T08:22:43;8.25;;;3.78;;
75465;SDS011;64049;46.290;44.240;2022-10-23T08:25:11;5.65;;;2.85;;
75465;SDS011;64049;46.290;44.240;2022-10-23T08:27:37;6.53;;;2.90;;
75465;SDS011;64049;46.290;44.240;2022-10-23T08:30:04;7.47;;;3.47;;
75465;SDS011;64049;46.290;44.240;2022-10-23T08:32:30;7.20;;;3.67;;
75465;SDS011;64049;46.290;44.240;2022-10-23T08:34:58;6.57;;;3.13;;
75465;SDS011;64049;46.290;44.240;2022-10-23T08:37:27;6.32;;;2.63;;
75465;SDS011;64049;46.290;44.240;2022-10-23T08:39:52;7.82;;;3.88;;
75465;SDS011;64049;46.290;44.240;2022-10-23T08:48:15;6.97;;;3.65;;
75465;SDS011;64049;46.290;44.240;2022-10-23T08:51:21;9.77;;;3.78;;
75465;SDS011;64049;46.290;44.240;2022-10-23T08:53:53;6.70;;;3.20;;
75465;SDS011;64049;46.290;44.240;2022-10-23T08:56:25;6.22;;;2.63;;
75465;SDS011;64049;46.290;44.240;2022-10-23T08:58:57;7.13;;;3.40;;
75465;SDS011;64049;46.290;44.240;2022-10-23T09:04:08;11.93;;;3.25;;
75465;SDS011;64049;46.290;44.240;2022-10-23T09:06:43;8.35;;;4.20;;
75465;SDS011;64049;46.290;44.240;2022-10-23T09:12:28;7.05;;;2.80;;
75465;SDS011;64049;46.290;44.240;2022-10-23T09:17:28;7.57;;;3.40;;
75465;SDS011;64049;46.290;44.240;2022-10-23T09:20:00;6.88;;;2.97;;
75465;SDS011;64049;46.290;44.240;2022-10-23T09:22:37;5.78;;;2.53;;
75465;SDS011;64049;46.290;44.240;2022-10-23T09:25:14;8.13;;;3.20;;
75465;SDS011;64049;46.290;44.240;2022-10-23T09:27:48;5.57;;;2.50;;
75465;SDS011;64049;46.290;44.240;2022-10-23T09:30:24;5.90;;;2.70;;
75465;SDS011;64049;46.290;44.240;2022-10-23T09:32:50;7.43;;;3.25;;
75465;SDS011;64049;46.290;44.240;2022-10-23T09:35:20;5.28;;;2.17;;
75465;SDS011;64049;46.290;44.240;2022-10-23T09:37:47;7.38;;;2.72;;
75465;SDS011;64049;46.290;44.240;2022-10-23T09:43:16;7.20;;;3.28;;
75465;SDS011;64049;46.290;44.240;2022-10-23T09:45:59;5.35;;;2.42;;
75465;SDS011;64049;46.290;44.240;2022-10-23T09:48:28;8.82;;;2.90;;
75465;SDS011;64049;46.290;44.240;2022-10-23T09:50:58;7.20;;;2.85;;
75465;SDS011;64049;46.290;44.240;2022-10-23T09:53:38;8.02;;;2.75;;
75465;SDS011;64049;46.290;44.240;2022-10-23T09:59:00;11.57;;;5.38;;
75465;SDS011;64049;46.290;44.240;2022-10-23T10:01:33;16.65;;;9.02;;
75465;SDS011;64049;46.290;44.240;2022-10-23T10:04:36;7.03;;;3.80;;
75465;SDS011;64049;46.290;44.240;2022-10-23T10:07:05;8.55;;;3.22;;
75465;SDS011;64049;46.290;44.240;2022-10-23T10:09:51;11.02;;;3.60;;
75465;SDS011;64049;46.290;44.240;2022-10-23T10:23:06;8.65;;;2.70;;
75465;SDS011;64049;46.290;44.240;2022-10-23T10:28:23;5.45;;;2.20;;
75465;SDS011;64049;46.290;44.240;2022-10-23T10:34:09;6.97;;;2.55;;
75465;SDS011;64049;46.290;44.240;2022-10-23T10:36:49;5.95;;;2.67;;
75465;SDS011;64049;46.290;44.240;2022-10-23T10:44:40;6.80;;;2.42;;
75465;SDS011;64049;46.290;44.240;2022-10-23T10:47:51;10.27;;;2.60;;
75465;SDS011;64049;46.290;44.240;2022-10-23T10:50:18;9.23;;;2.25;;
75465;SDS011;64049;46.290;44.240;2022-10-23T10:55:48;7.63;;;3.20;;
75465;SDS011;64049;46.290;44.240;2022-10-23T10:58:23;8.25;;;2.97;;
75465;SDS011;64049;46.290;44.240;2022-10-23T11:01:18;10.07;;;3.00;;
75465;SDS011;64049;46.290;44.240;2022-10-23T11:06:37;8.02;;;2.28;;
75465;SDS011;64049;46.290;44.240;2022-10-23T11:09:21;5.47;;;2.30;;
75465;SDS011;64049;46.290;44.240;2022-10-23T11:11:51;6.85;;;2.60;;
75465;SDS011;64049;46.290;44.240;2022-10-23T11:14:24;7.95;;;2.90;;
75465;SDS011;64049;46.290;44.240;2022-10-23T11:16:53;5.30;;;1.88;;
75465;SDS011;64049;46.290;44.240;2022-10-23T11:19:34;6.45;;;2.60;;
75465;SDS011;64049;46.290;44.240;2022-10-23T11:24:34;5.28;;;2.03;;
75465;SDS011;64049;46.290;44.240;2022-10-23T11:32:47;7.35;;;2.38;;
75465;SDS011;64049;46.290;44.240;2022-10-23T11:38:29;5.15;;;2.08;;
75465;SDS011;64049;46.290;44.240;2022-10-23T11:41:01;5.30;;;1.98;;
75465;SDS011;64049;46.290;44.240;2022-10-23T11:43:31;6.43;;;2.08;;
75465;SDS011;64049;46.290;44.240;2022-10-23T11:48:48;4.88;;;1.80;;
75465;SDS011;64049;46.290;44.240;2022-10-23T11:56:30;7.25;;;2.03;;
75465;SDS011;64049;46.290;44.240;2022-10-23T11:58:58;5.00;;;2.28;;
75465;SDS011;64049;46.290;44.240;2022-10-23T12:01:42;5.80;;;1.95;;
75465;SDS011;64049;46.290;44.240;2022-10-23T12:09:06;5.10;;;2.08;;
75465;SDS011;64049;46.290;44.240;2022-10-23T12:14:38;8.90;;;2.25;;
75465;SDS011;64049;46.290;44.240;2022-10-23T12:19:52;5.07;;;2.00;;
75465;SDS011;64049;46.290;44.240;2022-10-23T12:22:20;5.03;;;2.10;;
75465;SDS011;64049;46.290;44.240;2022-10-23T12:30:12;6.80;;;2.05;;
75465;SDS011;64049;46.290;44.240;2022-10-23T12:41:04;9.13;;;5.10;;
75465;SDS011;64049;46.290;44.240;2022-10-23T12:43:37;11.85;;;4.68;;
75465;SDS011;64049;46.290;44.240;2022-10-23T12:48:46;10.00;;;4.95;;
75465;SDS011;64049;46.290;44.240;2022-10-23T12:51:21;9.45;;;4.28;;
75465;SDS011;64049;46.290;44.240;2022-10-23T12:53:52;14.25;;;5.22;;
75465;SDS011;64049;46.290;44.240;2022-10-23T12:56:18;8.32;;;4.30;;
75465;SDS011;64049;46.290;44.240;2022-10-23T12:58:47;9.05;;;3.80;;
75465;SDS011;64049;46.290;44.240;2022-10-23T13:01:28;8.95;;;4.22;;
75465;SDS011;64049;46.290;44.240;2022-10-23T13:06:35;10.82;;;3.90;;
75465;SDS011;64049;46.290;44.240;2022-10-23T13:11:44;7.05;;;3.58;;
75465;SDS011;64049;46.290;44.240;2022-10-23T13:14:23;6.55;;;3.25;;
75465;SDS011;64049;46.290;44.240;2022-10-23T13:17:01;5.60;;;3.05;;
75465;SDS011;64049;46.290;44.240;2022-10-23T13:19:29;8.32;;;3.30;;
75465;SDS011;64049;46.290;44.240;2022-10-23T13:21:55;11.20;;;4.63;;
75465;SDS011;64049;46.290;44.240;2022-10-23T13:24:23;7.25;;;3.00;;
75465;SDS011;64049;46.290;44.240;2022-10-23T13:26:51;7.95;;;3.03;;
75465;SDS011;64049;46.290;44.240;2022-10-23T13:29:21;7.97;;;3.35;;
75465;SDS011;64049;46.290;44.240;2022-10-23T13:31:55;9.80;;;3.08;;
75465;SDS011;64049;46.290;44.240;2022-10-23T13:34:24;5.65;;;2.80;;
75465;SDS011;64049;46.290;44.240;2022-10-23T13:36:59;7.05;;;2.70;;
75465;SDS011;64049;46.290;44.240;2022-10-23T13:39:45;6.78;;;2.50;;
75465;SDS011;64049;46.290;44.240;2022-10-23T13:42:12;6.55;;;2.17;;
75465;SDS011;64049;46.290;44.240;2022-10-23T13:44:39;8.13;;;2.70;;
75465;SDS011;64049;46.290;44.240;2022-10-23T13:47:05;6.55;;;2.58;;
75465;SDS011;64049;46.290;44.240;2022-10-23T13:49:36;7.40;;;2.70;;
75465;SDS011;64049;46.290;44.240;2022-10-23T13:52:02;6.40;;;2.40;;
75465;SDS011;64049;46.290;44.240;2022-10-23T13:54:28;4.60;;;2.13;;
75465;SDS011;64049;46.290;44.240;2022-10-23T13:56:55;5.03;;;2.13;;
75465;SDS011;64049;46.290;44.240;2022-10-23T13:59:21;6.13;;;2.33;;
75465;SDS011;64049;46.290;44.240;2022-10-23T14:01:48;6.40;;;2.38;;
75465;SDS011;64049;46.290;44.240;2022-10-23T14:04:15;6.88;;;2.60;;
75465;SDS011;64049;46.290;44.240;2022-10-23T14:06:42;7.93;;;2.95;;
75465;SDS011;64049;46.290;44.240;2022-10-23T14:09:16;5.65;;;2.30;;
75465;SDS011;64049;46.290;44.240;2022-10-23T14:11:42;6.80;;;2.85;;
75465;SDS011;64049;46.290;44.240;2022-10-23T14:14:09;5.60;;;2.50;;
75465;SDS011;64049;46.290;44.240;2022-10-23T14:16:35;7.15;;;2.17;;
75465;SDS011;64049;46.290;44.240;2022-10-23T14:19:01;7.68;;;2.47;;
75465;SDS011;64049;46.290;44.240;2022-10-23T14:21:27;7.45;;;2.45;;
75465;SDS011;64049;46.290;44.240;2022-10-23T14:23:53;5.93;;;2.50;;
75465;SDS011;64049;46.290;44.240;2022-10-23T14:26:20;6.45;;;2.38;;
75465;SDS011;64049;46.290;44.240;2022-10-23T14:28:50;5.32;;;2.50;;
75465;SDS011;64049;46.290;44.240;2022-10-23T14:31:17;7.47;;;2.45;;
75465;SDS011;64049;46.290;44.240;2022-10-23T14:33:43;10.00;;;2.35;;
75465;SDS011;64049;46.290;44.240;2022-10-23T14:36:10;6.38;;;2.70;;
75465;SDS011;64049;46.290;44.240;2022-10-23T14:38:37;10.77;;;3.22;;
75465;SDS011;64049;46.290;44.240;2022-10-23T14:41:08;5.45;;;2.17;;
75465;SDS011;64049;46.290;44.240;2022-10-23T14:43:38;6.97;;;2.40;;
75465;SDS011;64049;46.290;44.240;2022-10-23T14:46:08;12.40;;;3.03;;
75465;SDS011;64049;46.290;44.240;2022-10-23T14:48:38;6.03;;;2.42;;
75465;SDS011;64049;46.290;44.240;2022-10-23T14:51:06;8.45;;;2.50;;
75465;SDS011;64049;46.290;44.240;2022-10-23T14:53:40;8.57;;;2.78;;
75465;SDS011;64049;46.290;44.240;2022-10-23T14:56:06;7.00;;;3.13;;
75465;SDS011;64049;46.290;44.240;2022-10-23T14:58:32;5.10;;;2.70;;
75465;SDS011;64049;46.290;44.240;2022-10-23T15:00:59;6.80;;;3.15;;
75465;SDS011;64049;46.290;44.240;2022-10-23T15:03:28;6.18;;;2.90;;
75465;SDS011;64049;46.290;44.240;2022-10-23T15:05:54;7.47;;;3.53;;
75465;SDS011;64049;46.290;44.240;2022-10-23T15:08:21;7.95;;;3.25;;
75465;SDS011;64049;46.290;44.240;2022-10-23T15:10:47;7.45;;;3.22;;
75465;SDS011;64049;46.290;44.240;2022-10-23T15:13:13;6.43;;;2.70;;
75465;SDS011;64049;46.290;44.240;2022-10-23T15:15:39;7.40;;;2.75;;
75465;SDS011;64049;46.290;44.240;2022-10-23T15:18:05;7.25;;;3.22;;
75465;SDS011;64049;46.290;44.240;2022-10-23T15:20:31;6.35;;;3.13;;
75465;SDS011;64049;46.290;44.240;2022-10-23T15:22:57;7.22;;;3.05;;
75465;SDS011;64049;46.290;44.240;2022-10-23T15:25:24;10.15;;;3.53;;
75465;SDS011;64049;46.290;44.240;2022-10-23T15:27:50;10.57;;;4.00;;
75465;SDS011;64049;46.290;44.240;2022-10-23T15:30:16;8.50;;;3.45;;
75465;SDS011;64049;46.290;44.240;2022-10-23T15:32:43;7.90;;;3.20;;
75465;SDS011;64049;46.290;44.240;2022-10-23T15:35:09;6.47;;;2.80;;
75465;SDS011;64049;46.290;44.240;2022-10-23T15:37:35;6.80;;;3.00;;
75465;SDS011;64049;46.290;44.240;2022-10-23T15:40:02;7.72;;;3.40;;
75465;SDS011;64049;46.290;44.240;2022-10-23T15:42:28;9.35;;;3.15;;
75465;SDS011;64049;46.290;44.240;2022-10-23T15:44:54;9.48;;;3.50;;
75465;SDS011;64049;46.290;44.240;2022-10-23T15:47:20;6.22;;;2.95;;
75465;SDS011;64049;46.290;44.240;2022-10-23T15:49:46;7.95;;;3.40;;
75465;SDS011;64049;46.290;44.240;2022-10-23T15:52:11;9.38;;;3.75;;
75465;SDS011;64049;46.290;44.240;2022-10-23T15:54:38;9.70;;;3.53;;
75465;SDS011;64049;46.290;44.240;2022-10-23T15:57:04;9.57;;;3.90;;
75465;SDS011;64049;46.290;44.240;2022-10-23T15:59:30;8.57;;;3.58;;
75465;SDS011;64049;46.290;44.240;2022-10-23T16:01:57;7.93;;;2.95;;
75465;SDS011;64049;46.290;44.240;2022-10-23T16:04:23;7.78;;;3.33;;
75465;SDS011;64049;46.290;44.240;2022-10-23T16:06:49;6.43;;;2.78;;
75465;SDS011;64049;46.290;44.240;2022-10-23T16:09:15;5.88;;;2.58;;
75465;SDS011;64049;46.290;44.240;2022-10-23T16:11:41;10.98;;;3.35;;
75465;SDS011;64049;46.290;44.240;2022-10-23T16:14:12;7.28;;;3.03;;
75465;SDS011;64049;46.290;44.240;2022-10-23T16:16:40;6.28;;;2.67;;
75465;SDS011;64049;46.290;44.240;2022-10-23T16:19:06;6.82;;;2.92;;
75465;SDS011;64049;46.290;44.240;2022-10-23T16:21:34;8.07;;;3.55;;
75465;SDS011;64049;46.290;44.240;2022-10-23T16:24:02;6.82;;;2.40;;
75465;SDS011;64049;46.290;44.240;2022-10-23T16:26:30;7.05;;;2.97;;
75465;SDS011;64049;46.290;44.240;2022-10-23T16:28:57;7.70;;;2.85;;
75465;SDS011;64049;46.290;44.240;2022-10-23T16:31:25;8.60;;;3.40;;
75465;SDS011;64049;46.290;44.240;2022-10-23T16:33:52;6.57;;;3.13;;
75465;SDS011;64049;46.290;44.240;2022-10-23T16:36:19;6.97;;;3.20;;
75465;SDS011;64049;46.290;44.240;2022-10-23T16:39:05;7.20;;;3.10;;
75465;SDS011;64049;46.290;44.240;2022-10-23T16:41:51;7.20;;;3.30;;
75465;SDS011;64049;46.290;44.240;2022-10-23T16:44:17;6.95;;;2.83;;
75465;SDS011;64049;46.290;44.240;2022-10-23T16:46:55;9.38;;;2.60;;
75465;SDS011;64049;46.290;44.240;2022-10-23T16:49:21;7.15;;;3.25;;
75465;SDS011;64049;46.290;44.240;2022-10-23T16:51:47;9.90;;;3.42;;
75465;SDS011;64049;46.290;44.240;2022-10-23T16:54:13;7.50;;;3.00;;
75465;SDS011;64049;46.290;44.240;2022-10-23T16:56:39;6.63;;;2.78;;
75465;SDS011;64049;46.290;44.240;2022-10-23T16:59:05;7.82;;;3.30;;
75465;SDS011;64049;46.290;44.240;2022-10-23T17:01:31;6.88;;;3.13;;
75465;SDS011;64049;46.290;44.240;2022-10-23T17:03:58;6.20;;;3.13;;
75465;SDS011;64049;46.290;44.240;2022-10-23T17:06:26;7.22;;;3.38;;
75465;SDS011;64049;46.290;44.240;2022-10-23T17:08:55;7.38;;;3.20;;
75465;SDS011;64049;46.290;44.240;2022-10-23T17:11:22;6.60;;;2.72;;
75465;SDS011;64049;46.290;44.240;2022-10-23T17:13:56;8.65;;;3.58;;